createdAt,value
2023-03-02T00:01:04.405Z,15.34
2023-03-02T00:03:33.468Z,15.34
2023-03-02T00:06:01.328Z,15.34
2023-03-02T00:08:29.030Z,15.34
2023-03-02T00:10:57.932Z,15.31
2023-03-02T00:13:25.535Z,15.33
2023-03-02T00:15:53.877Z,15.30
2023-03-02T00:18:21.436Z,15.32
2023-03-02T00:20:48.815Z,15.30
2023-03-02T00:23:16.455Z,15.30
2023-03-02T00:25:44.945Z,15.30
2023-03-02T00:28:12.431Z,15.29
2023-03-02T00:30:40.148Z,15.29
2023-03-02T00:33:07.743Z,15.29
2023-03-02T00:35:41.481Z,15.28
2023-03-02T00:38:09.115Z,15.28
2023-03-02T00:40:36.584Z,15.29
2023-03-02T00:43:04.251Z,15.29
2023-03-02T00:45:31.538Z,15.26
2023-03-02T00:47:59.061Z,15.26
2023-03-02T00:50:26.853Z,15.27
2023-03-02T00:52:54.354Z,15.25
2023-03-02T00:55:21.649Z,15.24
2023-03-02T00:57:54.989Z,15.25
2023-03-02T01:00:22.994Z,15.24
2023-03-02T01:02:50.858Z,15.21
2023-03-02T01:05:18.538Z,15.21
2023-03-02T01:07:46.182Z,15.21
2023-03-02T01:10:14.169Z,15.21
2023-03-02T01:12:41.800Z,15.21
2023-03-02T01:15:10.287Z,15.21
2023-03-02T01:17:39.676Z,15.20
2023-03-02T01:20:08.867Z,15.21
2023-03-02T01:22:36.416Z,15.21
2023-03-02T01:25:04.637Z,15.20
2023-03-02T01:27:32.431Z,15.18
2023-03-02T01:29:59.784Z,15.19
2023-03-02T01:32:27.350Z,15.17
2023-03-02T01:34:54.915Z,15.17
2023-03-02T01:37:23.036Z,15.16
2023-03-02T01:39:50.840Z,15.15
2023-03-02T01:42:18.834Z,15.16
2023-03-02T01:44:48.923Z,15.15
2023-03-02T01:47:23.142Z,15.16
2023-03-02T01:49:59.090Z,15.16
2023-03-02T01:52:28.959Z,15.16
2023-03-02T01:55:01.620Z,15.15
2023-03-02T01:57:32.830Z,15.13
2023-03-02T02:00:08.421Z,15.14
2023-03-02T02:02:36.668Z,15.13
2023-03-02T02:05:04.265Z,15.11
2023-03-02T02:07:31.917Z,15.12
2023-03-02T02:10:00.309Z,15.11
2023-03-02T02:12:27.991Z,15.11
2023-03-02T02:15:00.641Z,15.10
2023-03-02T02:17:30.050Z,15.10
2023-03-02T02:20:25.148Z,15.08
2023-03-02T02:23:00.032Z,15.08
2023-03-02T02:25:33.315Z,15.08
2023-03-02T02:28:03.458Z,15.09
2023-03-02T02:30:30.767Z,15.06
2023-03-02T02:32:59.607Z,15.06
2023-03-02T02:35:30.094Z,15.07
2023-03-02T02:38:03.276Z,15.05
2023-03-02T02:40:52.667Z,15.07
2023-03-02T02:43:22.081Z,15.04
2023-03-02T02:45:53.780Z,15.04
2023-03-02T02:48:24.483Z,15.03
2023-03-02T02:51:00.181Z,15.03
2023-03-02T02:53:39.666Z,15.04
2023-03-02T02:56:09.353Z,15.03
2023-03-02T02:58:49.280Z,15.03
2023-03-02T03:01:18.967Z,15.03
2023-03-02T03:03:57.929Z,15.01
2023-03-02T03:06:30.415Z,15.02
2023-03-02T03:09:00.897Z,15.01
2023-03-02T03:11:31.193Z,15.02
2023-03-02T03:14:10.022Z,15.01
2023-03-02T03:16:39.012Z,15.01
2023-03-02T03:19:25.184Z,14.99
2023-03-02T03:21:55.866Z,14.99
2023-03-02T03:24:25.384Z,15.00
2023-03-02T03:26:54.214Z,14.99
2023-03-02T03:29:25.189Z,14.99
2023-03-02T03:31:54.526Z,14.98
2023-03-02T03:34:22.826Z,14.98
2023-03-02T03:36:50.507Z,14.96
2023-03-02T03:39:19.059Z,14.96
2023-03-02T03:41:46.468Z,14.96
2023-03-02T03:44:13.997Z,14.96
2023-03-02T03:46:41.215Z,14.95
2023-03-02T03:49:08.833Z,14.95
2023-03-02T03:51:36.072Z,14.94
2023-03-02T03:54:05.602Z,14.94
2023-03-02T03:56:36.276Z,14.93
2023-03-02T03:59:07.085Z,14.94
2023-03-02T04:01:41.856Z,14.94
2023-03-02T04:04:13.792Z,14.92
2023-03-02T04:06:41.539Z,14.92
2023-03-02T04:09:09.609Z,14.92
2023-03-02T04:11:39.512Z,14.91
2023-03-02T04:14:07.993Z,14.90
2023-03-02T04:16:35.949Z,14.92
2023-03-02T04:19:09.445Z,14.91
2023-03-02T04:21:39.274Z,14.89
2023-03-02T04:24:08.394Z,14.90
2023-03-02T04:26:37.508Z,14.88
2023-03-02T04:29:05.588Z,14.87
2023-03-02T04:31:33.195Z,14.87
2023-03-02T04:34:04.197Z,14.88
2023-03-02T04:36:34.616Z,14.87
2023-03-02T04:39:04.116Z,14.87
2023-03-02T04:41:31.715Z,14.87
2023-03-02T04:43:59.218Z,14.86
2023-03-02T04:46:28.054Z,14.86
2023-03-02T04:48:56.531Z,14.85
2023-03-02T04:51:27.741Z,14.84
2023-03-02T04:53:58.330Z,14.86
2023-03-02T04:56:26.317Z,14.85
2023-03-02T04:58:54.146Z,14.84
2023-03-02T05:01:21.519Z,14.84
2023-03-02T05:03:49.204Z,14.82
2023-03-02T05:06:16.984Z,14.83
2023-03-02T05:08:45.139Z,14.82
2023-03-02T05:11:22.446Z,14.82
2023-03-02T05:13:56.307Z,14.81
2023-03-02T05:16:26.216Z,14.81
2023-03-02T05:18:53.912Z,14.82
2023-03-02T05:21:21.613Z,14.80
2023-03-02T05:23:49.156Z,14.80
2023-03-02T05:26:16.723Z,14.79
2023-03-02T05:28:44.895Z,14.79
2023-03-02T05:31:23.558Z,14.79
2023-03-02T05:33:51.205Z,14.80
2023-03-02T05:36:20.232Z,14.77
2023-03-02T05:38:48.781Z,14.78
2023-03-02T05:41:16.113Z,14.76
2023-03-02T05:43:44.068Z,14.77
2023-03-02T05:46:11.420Z,14.77
2023-03-02T05:48:39.090Z,14.76
2023-03-02T05:51:07.737Z,14.75
2023-03-02T05:53:35.279Z,14.76
2023-03-02T05:56:03.397Z,14.76
2023-03-02T05:58:30.950Z,14.76
2023-03-02T06:00:58.470Z,14.75
2023-03-02T06:03:26.023Z,14.76
2023-03-02T06:05:53.296Z,14.77
2023-03-02T06:08:21.962Z,14.76
2023-03-02T06:10:50.790Z,14.77
2023-03-02T06:13:18.471Z,14.76
2023-03-02T06:15:45.853Z,14.80
2023-03-02T06:18:13.976Z,14.82
2023-03-02T06:20:41.963Z,14.86
2023-03-02T06:23:09.603Z,14.80
2023-03-02T06:25:40.125Z,14.77
2023-03-02T06:28:07.713Z,14.75
2023-03-02T06:30:34.963Z,14.74
2023-03-02T06:33:02.470Z,14.76
2023-03-02T06:35:30.013Z,14.79
2023-03-02T06:37:57.628Z,14.79
2023-03-02T06:40:24.873Z,14.80
2023-03-02T06:42:52.389Z,14.81
2023-03-02T06:45:19.707Z,14.82
2023-03-02T06:47:47.303Z,14.82
2023-03-02T06:50:14.594Z,14.84
2023-03-02T06:52:42.091Z,14.84
2023-03-02T06:55:09.662Z,14.86
2023-03-02T06:57:38.635Z,14.86
2023-03-02T07:00:17.308Z,14.85
2023-03-02T07:02:45.263Z,14.87
2023-03-02T07:05:13.102Z,14.87
2023-03-02T07:07:40.643Z,14.89
2023-03-02T07:10:08.513Z,14.89
2023-03-02T07:12:36.108Z,14.89
2023-03-02T07:15:03.918Z,14.91
2023-03-02T07:17:31.439Z,14.91
2023-03-02T07:19:58.715Z,14.93
2023-03-02T07:22:26.271Z,14.91
2023-03-02T07:24:54.032Z,14.92
2023-03-02T07:27:21.611Z,14.92
2023-03-02T07:29:49.334Z,14.93
2023-03-02T07:32:16.929Z,14.95
2023-03-02T07:34:44.171Z,14.96
2023-03-02T07:37:11.711Z,14.97
2023-03-02T07:39:38.928Z,14.98
2023-03-02T07:42:08.846Z,14.99
2023-03-02T07:44:36.107Z,15.00
2023-03-02T07:47:04.610Z,15.00
2023-03-02T07:49:32.130Z,15.01
2023-03-02T07:51:59.805Z,15.03
2023-03-02T07:54:27.854Z,15.02
2023-03-02T07:56:55.339Z,15.04
2023-03-02T07:59:22.958Z,15.05
2023-03-02T08:01:50.530Z,15.07
2023-03-02T08:04:17.827Z,15.08
2023-03-02T08:06:46.222Z,15.08
2023-03-02T08:09:15.787Z,15.10
2023-03-02T08:11:44.956Z,15.10
2023-03-02T08:14:12.273Z,15.10
2023-03-02T08:16:40.135Z,15.09
2023-03-02T08:19:08.066Z,15.08
2023-03-02T08:21:35.829Z,15.10
2023-03-02T08:24:03.559Z,15.11
2023-03-02T08:26:31.738Z,15.11
2023-03-02T08:28:59.374Z,15.12
2023-03-02T08:31:27.405Z,15.12
2023-03-02T08:33:54.907Z,15.13
2023-03-02T08:36:22.594Z,15.14
2023-03-02T08:38:49.968Z,15.14
2023-03-02T08:41:20.058Z,15.15
2023-03-02T08:43:48.088Z,15.15
2023-03-02T08:46:18.556Z,15.16
2023-03-02T08:48:47.312Z,15.16
2023-03-02T08:51:18.135Z,15.18
2023-03-02T08:53:47.570Z,15.19
2023-03-02T08:56:23.183Z,15.18
2023-03-02T08:58:51.705Z,15.19
2023-03-02T09:01:23.126Z,15.21
2023-03-02T09:03:51.988Z,15.21
2023-03-02T09:06:19.663Z,15.22
2023-03-02T09:08:47.908Z,15.23
2023-03-02T09:11:16.697Z,15.23
2023-03-02T09:13:44.212Z,15.23
2023-03-02T09:16:12.574Z,15.26
2023-03-02T09:18:40.440Z,15.27
2023-03-02T09:21:08.164Z,15.28
2023-03-02T09:23:38.518Z,15.27
2023-03-02T09:26:06.419Z,15.29
2023-03-02T09:28:34.582Z,15.29
2023-03-02T09:31:04.367Z,15.31
2023-03-02T09:33:32.836Z,15.31
2023-03-02T09:36:01.398Z,15.31
2023-03-02T09:38:28.897Z,15.31
2023-03-02T09:41:35.745Z,15.32
2023-03-02T09:44:24.697Z,15.33
2023-03-02T09:47:13.433Z,15.35
2023-03-02T09:49:59.450Z,15.35
2023-03-02T09:52:41.004Z,15.37
2023-03-02T09:55:18.762Z,15.37
2023-03-02T09:57:47.425Z,15.39
2023-03-02T10:00:22.782Z,15.41
2023-03-02T10:02:54.501Z,15.42
2023-03-02T10:05:29.493Z,15.44
2023-03-02T10:07:59.223Z,15.43
2023-03-02T10:10:37.160Z,15.45
2023-03-02T10:13:28.633Z,15.47
2023-03-02T10:15:59.099Z,15.49
2023-03-02T10:18:39.969Z,15.49
2023-03-02T10:21:50.520Z,15.49
2023-03-02T10:24:23.775Z,15.50
2023-03-02T10:26:54.793Z,15.52
2023-03-02T10:29:41.223Z,15.52
2023-03-02T10:32:17.276Z,15.53
2023-03-02T10:34:45.723Z,15.53
2023-03-02T10:37:16.698Z,15.55
2023-03-02T10:39:44.440Z,15.55
2023-03-02T10:42:17.913Z,15.57
2023-03-02T10:44:52.664Z,15.58
2023-03-02T10:47:23.033Z,15.60
2023-03-02T10:49:51.338Z,15.60
2023-03-02T10:52:29.344Z,15.61
2023-03-02T10:55:13.716Z,15.62
2023-03-02T10:57:46.290Z,15.62
2023-03-02T11:00:25.177Z,15.67
2023-03-02T11:03:05.556Z,15.64
2023-03-02T11:05:36.852Z,15.67
2023-03-02T11:08:16.901Z,15.66
2023-03-02T11:11:00.568Z,15.67
2023-03-02T11:13:39.016Z,15.68
2023-03-02T11:16:18.752Z,15.68
2023-03-02T11:19:39.760Z,15.67
2023-03-02T11:22:27.792Z,15.70
2023-03-02T11:24:58.293Z,15.70
2023-03-02T11:27:30.800Z,15.71
2023-03-02T11:30:04.110Z,15.73
2023-03-02T11:32:36.743Z,15.74
2023-03-02T11:35:42.897Z,15.74
2023-03-02T11:38:25.166Z,15.76
2023-03-02T11:41:00.476Z,15.76
2023-03-02T11:43:28.025Z,15.77
2023-03-02T11:46:08.568Z,15.78
2023-03-02T11:48:48.866Z,15.78
2023-03-02T11:51:21.934Z,15.81
2023-03-02T11:54:03.554Z,15.81
2023-03-02T11:56:35.164Z,15.82
2023-03-02T11:59:06.869Z,15.82
2023-03-02T12:01:38.015Z,15.84
2023-03-02T12:04:26.553Z,15.84
2023-03-02T12:06:54.182Z,15.86
2023-03-02T12:09:24.874Z,15.85
2023-03-02T12:11:58.450Z,15.86
2023-03-02T12:14:35.997Z,15.86
2023-03-02T12:17:05.421Z,15.86
2023-03-02T12:19:42.445Z,15.86
2023-03-02T12:22:12.344Z,15.89
2023-03-02T12:24:43.900Z,15.89
2023-03-02T12:27:14.180Z,15.89
2023-03-02T12:29:44.814Z,15.91
2023-03-02T12:32:21.010Z,15.91
2023-03-02T12:35:10.930Z,15.92
2023-03-02T12:37:57.151Z,15.92
2023-03-02T12:41:05.443Z,15.92
2023-03-02T12:43:37.807Z,15.92
2023-03-02T12:46:20.665Z,15.92
2023-03-02T12:49:01.020Z,15.92
2023-03-02T12:51:43.238Z,15.94
2023-03-02T12:54:17.219Z,15.94
2023-03-02T12:56:46.112Z,15.95
2023-03-02T12:59:27.400Z,15.98
2023-03-02T13:02:16.169Z,15.99
2023-03-02T13:04:43.856Z,16.00
2023-03-02T13:07:22.198Z,16.01
2023-03-02T13:09:56.792Z,16.02
2023-03-02T13:12:29.329Z,16.02
2023-03-02T13:14:58.741Z,16.01
2023-03-02T13:17:31.894Z,16.01
2023-03-02T13:20:01.040Z,16.03
2023-03-02T13:22:29.279Z,16.01
2023-03-02T13:25:03.461Z,16.03
2023-03-02T13:27:31.679Z,16.05
2023-03-02T13:30:21.562Z,16.04
2023-03-02T13:32:50.953Z,16.07
2023-03-02T13:35:26.154Z,16.04
2023-03-02T13:38:12.801Z,16.08
2023-03-02T13:40:43.006Z,16.06
2023-03-02T13:43:31.840Z,16.08
2023-03-02T13:46:17.516Z,16.09
2023-03-02T13:49:14.241Z,16.09
2023-03-02T13:51:47.249Z,16.09
2023-03-02T13:54:25.749Z,16.10
2023-03-02T13:56:54.324Z,16.09
2023-03-02T13:59:22.404Z,16.09
2023-03-02T14:01:49.750Z,16.11
2023-03-02T14:04:21.625Z,16.11
2023-03-02T14:06:50.237Z,16.12
2023-03-02T14:09:19.115Z,16.12
2023-03-02T14:11:53.368Z,16.12
2023-03-02T14:14:23.624Z,16.13
2023-03-02T14:16:51.240Z,16.12
2023-03-02T14:19:20.117Z,16.13
2023-03-02T14:21:48.595Z,16.12
2023-03-02T14:24:16.160Z,16.13
2023-03-02T14:26:47.150Z,16.12
2023-03-02T14:29:30.946Z,16.11
2023-03-02T14:32:03.613Z,16.12
2023-03-02T14:34:31.270Z,16.13
2023-03-02T14:37:02.724Z,16.13
2023-03-02T14:39:56.864Z,16.14
2023-03-02T14:42:24.253Z,16.12
2023-03-02T14:44:52.264Z,16.11
2023-03-02T14:47:19.893Z,16.12
2023-03-02T14:49:48.739Z,16.10
2023-03-02T14:52:26.383Z,16.11
2023-03-02T14:54:59.135Z,16.10
2023-03-02T14:57:28.619Z,16.10
2023-03-02T14:59:59.792Z,16.11
2023-03-02T15:02:27.486Z,16.11
2023-03-02T15:04:57.040Z,16.09
2023-03-02T15:07:27.133Z,16.11
2023-03-02T15:09:57.999Z,16.08
2023-03-02T15:12:27.109Z,16.07
2023-03-02T15:14:54.686Z,16.08
2023-03-02T15:17:22.103Z,16.06
2023-03-02T15:19:49.668Z,16.04
2023-03-02T15:22:17.088Z,16.04
2023-03-02T15:24:44.657Z,16.04
2023-03-02T15:27:11.997Z,16.03
2023-03-02T15:29:43.889Z,16.01
2023-03-02T15:32:11.410Z,16.02
2023-03-02T15:34:38.999Z,16.01
2023-03-02T15:37:06.391Z,16.02
2023-03-02T15:39:34.145Z,16.01
2023-03-02T15:42:01.483Z,16.01
2023-03-02T15:44:29.694Z,15.99
2023-03-02T15:46:59.404Z,15.98
2023-03-02T15:49:29.329Z,15.99
2023-03-02T15:51:58.089Z,15.95
2023-03-02T15:54:28.472Z,15.94
2023-03-02T15:56:56.325Z,15.95
2023-03-02T15:59:26.109Z,15.92
2023-03-02T16:01:56.746Z,15.90
2023-03-02T16:04:28.789Z,15.90
2023-03-02T16:06:56.587Z,15.90
2023-03-02T16:09:28.785Z,15.90
2023-03-02T16:11:56.402Z,15.88
2023-03-02T16:14:24.189Z,15.86
2023-03-02T16:16:51.751Z,15.83
2023-03-02T16:19:19.763Z,15.82
2023-03-02T16:21:47.885Z,15.81
2023-03-02T16:24:16.937Z,15.81
2023-03-02T16:26:45.024Z,15.80
2023-03-02T16:29:13.544Z,15.80
2023-03-02T16:31:42.238Z,15.77
2023-03-02T16:34:10.177Z,15.76
2023-03-02T16:36:39.630Z,15.76
2023-03-02T16:39:08.689Z,15.75
2023-03-02T16:41:36.479Z,15.73
2023-03-02T16:44:04.265Z,15.72
2023-03-02T16:46:36.278Z,15.74
2023-03-02T16:49:04.916Z,15.74
2023-03-02T16:51:32.581Z,15.74
2023-03-02T16:54:00.990Z,15.74
2023-03-02T16:56:28.445Z,15.73
2023-03-02T16:58:58.237Z,15.72
2023-03-02T17:01:26.992Z,15.72
2023-03-02T17:03:54.742Z,15.73
2023-03-02T17:06:23.425Z,15.73
2023-03-02T17:08:51.396Z,15.72
2023-03-02T17:11:19.534Z,15.72
2023-03-02T17:13:47.886Z,15.73
2023-03-02T17:16:16.729Z,15.73
2023-03-02T17:18:47.010Z,15.73
2023-03-02T17:21:16.659Z,15.73
2023-03-02T17:23:47.899Z,15.70
2023-03-02T17:26:16.721Z,15.71
2023-03-02T17:28:44.352Z,15.71
2023-03-02T17:31:11.834Z,15.71
2023-03-02T17:33:39.433Z,15.72
2023-03-02T17:36:11.837Z,15.70
2023-03-02T17:38:40.549Z,15.69
2023-03-02T17:41:10.558Z,15.70
2023-03-02T17:43:40.938Z,15.70
2023-03-02T17:46:28.664Z,15.70
2023-03-02T17:48:58.296Z,15.71
2023-03-02T17:51:27.879Z,15.71
2023-03-02T17:53:56.057Z,15.71
2023-03-02T17:56:25.938Z,15.71
2023-03-02T17:59:05.062Z,15.74
2023-03-02T18:01:33.389Z,15.73
2023-03-02T18:04:02.206Z,15.75
2023-03-02T18:06:29.529Z,15.77
2023-03-02T18:08:57.169Z,15.77
2023-03-02T18:11:25.893Z,15.80
2023-03-02T18:13:54.973Z,15.82
2023-03-02T18:16:23.421Z,15.84
2023-03-02T18:18:53.811Z,15.87
2023-03-02T18:21:22.126Z,15.89
2023-03-02T18:23:49.658Z,15.91
2023-03-02T18:26:17.140Z,15.91
2023-03-02T18:28:44.735Z,15.93
2023-03-02T18:31:15.137Z,15.95
2023-03-02T18:33:42.906Z,15.98
2023-03-02T18:36:10.509Z,15.99
2023-03-02T18:38:38.445Z,16.00
2023-03-02T18:41:07.440Z,16.02
2023-03-02T18:43:39.052Z,16.02
2023-03-02T18:46:06.809Z,16.02
2023-03-02T18:48:34.395Z,16.04
2023-03-02T18:51:01.949Z,16.04
2023-03-02T18:53:29.539Z,16.04
2023-03-02T18:55:56.849Z,16.06
2023-03-02T18:58:25.618Z,16.08
2023-03-02T19:00:54.356Z,16.09
2023-03-02T19:03:22.437Z,16.10
2023-03-02T19:05:49.806Z,16.13
2023-03-02T19:08:17.400Z,16.15
2023-03-02T19:10:44.667Z,16.18
2023-03-02T19:13:12.189Z,16.18
2023-03-02T19:15:40.064Z,16.15
2023-03-02T19:18:08.140Z,16.18
2023-03-02T19:20:35.735Z,16.23
2023-03-02T19:23:03.559Z,16.21
2023-03-02T19:25:31.058Z,16.24
2023-03-02T19:27:58.600Z,16.25
2023-03-02T19:30:26.950Z,16.25
2023-03-02T19:32:55.175Z,16.26
2023-03-02T19:35:25.270Z,16.27
2023-03-02T19:37:53.703Z,16.28
2023-03-02T19:40:24.619Z,16.27
2023-03-02T19:42:53.631Z,16.28
2023-03-02T19:45:24.870Z,16.24
2023-03-02T19:47:52.899Z,16.23
2023-03-02T19:50:21.782Z,16.22
2023-03-02T19:52:49.991Z,16.21
2023-03-02T19:55:17.414Z,16.20
2023-03-02T19:57:50.884Z,16.19
2023-03-02T20:00:19.681Z,16.20
2023-03-02T20:02:47.366Z,16.20
2023-03-02T20:05:15.361Z,16.19
2023-03-02T20:07:43.342Z,16.17
2023-03-02T20:10:23.792Z,16.17
2023-03-02T20:12:51.517Z,16.17
2023-03-02T20:15:20.118Z,16.16
2023-03-02T20:17:47.865Z,16.14
2023-03-02T20:20:15.159Z,16.14
2023-03-02T20:22:42.730Z,16.12
2023-03-02T20:25:10.227Z,16.13
2023-03-02T20:27:38.048Z,16.12
2023-03-02T20:30:07.801Z,16.11
2023-03-02T20:32:35.803Z,16.10
2023-03-02T20:35:03.212Z,16.10
2023-03-02T20:37:30.790Z,16.09
2023-03-02T20:39:58.142Z,16.06
2023-03-02T20:42:25.739Z,16.07
2023-03-02T20:44:53.392Z,16.10
2023-03-02T20:47:21.825Z,16.08
2023-03-02T20:49:50.067Z,16.08
2023-03-02T20:52:18.197Z,16.09
2023-03-02T20:54:46.345Z,16.09
2023-03-02T20:57:16.996Z,16.11
2023-03-02T20:59:46.877Z,16.13
2023-03-02T21:02:19.180Z,16.15
2023-03-02T21:04:47.553Z,16.13
2023-03-02T21:07:16.029Z,16.15
2023-03-02T21:09:44.952Z,16.15
2023-03-02T21:12:13.231Z,16.15
2023-03-02T21:14:41.078Z,16.15
2023-03-02T21:17:10.959Z,16.15
2023-03-02T21:19:38.416Z,16.14
2023-03-02T21:22:06.002Z,16.17
2023-03-02T21:24:33.333Z,16.19
2023-03-02T21:27:01.365Z,16.21
2023-03-02T21:29:29.061Z,16.22
2023-03-02T21:31:56.861Z,16.23
2023-03-02T21:34:24.661Z,16.25
2023-03-02T21:36:53.719Z,16.27
2023-03-02T21:39:23.600Z,16.29
2023-03-02T21:41:52.435Z,16.27
2023-03-02T21:44:20.425Z,16.28
2023-03-02T21:46:48.787Z,16.29
2023-03-02T21:49:19.374Z,16.27
2023-03-02T21:51:49.876Z,16.27
2023-03-02T21:54:18.126Z,16.27
2023-03-02T21:56:46.428Z,16.27
2023-03-02T21:59:14.022Z,16.27
2023-03-02T22:01:41.650Z,16.25
2023-03-02T22:04:08.889Z,16.24
2023-03-02T22:06:37.585Z,16.23
2023-03-02T22:09:04.897Z,16.23
2023-03-02T22:11:37.774Z,16.21
2023-03-02T22:14:13.987Z,16.23
2023-03-02T22:16:45.100Z,16.23
2023-03-02T22:19:38.039Z,16.21
2023-03-02T22:22:16.677Z,16.22
2023-03-02T22:24:49.038Z,16.20
2023-03-02T22:27:26.815Z,16.19
2023-03-02T22:29:57.890Z,16.19
2023-03-02T22:32:30.883Z,16.18
2023-03-02T22:35:00.408Z,16.17
2023-03-02T22:37:32.746Z,16.16
2023-03-02T22:40:30.240Z,16.14
2023-03-02T22:43:19.812Z,16.14
2023-03-02T22:45:47.527Z,16.12
2023-03-02T22:48:18.218Z,16.12
2023-03-02T22:50:47.550Z,16.12
2023-03-02T22:53:32.983Z,16.13
2023-03-02T22:56:03.299Z,16.11
2023-03-02T22:59:01.137Z,16.12
2023-03-02T23:01:38.361Z,16.11
2023-03-02T23:04:09.406Z,16.10
2023-03-02T23:06:54.419Z,16.09
2023-03-02T23:09:27.840Z,16.06
2023-03-02T23:11:58.711Z,16.07
2023-03-02T23:14:44.718Z,16.06
2023-03-02T23:17:17.900Z,16.06
2023-03-02T23:19:45.573Z,16.02
2023-03-02T23:22:12.932Z,16.03
2023-03-02T23:24:40.642Z,16.03
2023-03-02T23:27:09.465Z,16.02
2023-03-02T23:29:37.887Z,15.99
2023-03-02T23:32:05.456Z,15.98
2023-03-02T23:34:33.058Z,16.00
2023-03-02T23:37:00.407Z,16.00
2023-03-02T23:39:28.687Z,15.98
2023-03-02T23:41:56.103Z,15.97
2023-03-02T23:44:23.990Z,15.97
2023-03-02T23:46:51.942Z,15.95
2023-03-02T23:49:19.538Z,15.94
2023-03-02T23:51:46.843Z,15.94
2023-03-02T23:54:14.635Z,15.95
2023-03-02T23:56:42.025Z,15.93
2023-03-02T23:59:09.570Z,15.91
